createdAt,value
2019-02-21T00:02:00.285Z,16.63
2019-02-21T00:04:28.929Z,16.03
2019-02-21T00:07:00.066Z,15.80
2019-02-21T00:09:28.611Z,16.57
2019-02-21T00:14:31.803Z,15.73
2019-02-21T00:17:00.354Z,15.27
2019-02-21T00:19:28.897Z,15.77
2019-02-21T00:21:57.469Z,16.03
2019-02-21T00:24:25.934Z,14.90
2019-02-21T00:26:54.401Z,15.87
2019-02-21T00:29:22.905Z,15.07
2019-02-21T00:31:51.446Z,14.03
2019-02-21T00:34:20.002Z,15.43
2019-02-21T00:36:48.579Z,13.77
2019-02-21T00:39:17.118Z,14.53
2019-02-21T00:41:45.585Z,14.37
2019-02-21T00:44:14.091Z,14.03
2019-02-21T00:46:42.634Z,15.17
2019-02-21T00:49:11.181Z,14.00
2019-02-21T00:51:39.757Z,14.80
2019-02-21T00:54:08.307Z,14.03
2019-02-21T00:56:36.919Z,14.97
2019-02-21T00:59:05.566Z,15.43
2019-02-21T01:01:34.109Z,15.33
2019-02-21T01:04:02.749Z,14.00
2019-02-21T01:06:31.241Z,15.47
2019-02-21T01:08:59.710Z,13.53
2019-02-21T01:11:28.266Z,14.90
2019-02-21T01:13:56.845Z,15.77
2019-02-21T01:16:25.454Z,16.03
2019-02-21T01:18:54.006Z,14.83
2019-02-21T01:21:22.586Z,14.40
2019-02-21T01:23:51.138Z,13.73
2019-02-21T01:26:19.613Z,13.93
2019-02-21T01:28:48.330Z,13.53
2019-02-21T01:31:17.024Z,14.17
2019-02-21T01:33:45.561Z,13.93
2019-02-21T01:36:14.032Z,14.27
2019-02-21T01:38:42.577Z,14.27
2019-02-21T01:41:11.206Z,14.47
2019-02-21T01:43:39.777Z,14.83
2019-02-21T01:46:08.249Z,14.17
2019-02-21T01:48:36.862Z,14.27
2019-02-21T01:51:05.528Z,13.57
2019-02-21T01:53:34.065Z,13.60
2019-02-21T01:56:02.542Z,14.37
2019-02-21T01:58:31.166Z,14.27
2019-02-21T02:01:08.065Z,13.97
2019-02-21T02:03:29.993Z,14.13
2019-02-21T02:05:58.463Z,14.63
2019-02-21T02:08:27.101Z,14.60
2019-02-21T02:10:55.578Z,13.93
2019-02-21T02:13:25.051Z,13.43
2019-02-21T02:15:53.746Z,12.97
2019-02-21T02:18:22.353Z,14.03
2019-02-21T02:20:50.853Z,13.83
2019-02-21T02:23:19.325Z,13.90
2019-02-21T02:25:47.861Z,13.60
2019-02-21T02:28:16.483Z,13.77
2019-02-21T02:30:45.098Z,13.23
2019-02-21T02:33:13.641Z,13.53
2019-02-21T02:35:42.127Z,12.80
2019-02-21T02:38:10.662Z,13.13
2019-02-21T02:40:39.170Z,12.47
2019-02-21T02:43:07.718Z,12.90
2019-02-21T02:45:36.257Z,12.77
2019-02-21T02:48:04.841Z,12.80
2019-02-21T02:50:33.377Z,13.20
2019-02-21T02:53:01.850Z,13.57
2019-02-21T02:55:30.443Z,12.67
2019-02-21T02:57:58.981Z,12.00
2019-02-21T03:00:27.519Z,13.47
2019-02-21T03:02:56.126Z,13.27
2019-02-21T03:05:24.668Z,12.27
2019-02-21T03:07:53.214Z,13.03
2019-02-21T03:10:21.791Z,12.07
2019-02-21T03:12:50.342Z,12.43
2019-02-21T03:15:18.892Z,11.47
2019-02-21T03:17:47.449Z,11.77
2019-02-21T03:20:15.927Z,12.33
2019-02-21T03:22:44.537Z,11.53
2019-02-21T03:25:13.105Z,11.80
2019-02-21T03:27:41.653Z,13.20
2019-02-21T03:30:12.461Z,13.73
2019-02-21T03:32:41.433Z,13.47
2019-02-21T03:35:10.129Z,13.03
2019-02-21T03:37:38.667Z,14.60
2019-02-21T03:40:09.563Z,12.93
2019-02-21T03:42:38.197Z,11.93
2019-02-21T03:45:13.005Z,11.70
2019-02-21T03:47:41.554Z,10.63
2019-02-21T03:50:11.159Z,10.30
2019-02-21T03:52:39.800Z,9.70
2019-02-21T03:55:09.387Z,10.87
2019-02-21T03:57:38.071Z,10.17
2019-02-21T04:00:11.306Z,9.10
2019-02-21T04:02:39.992Z,9.53
2019-02-21T04:05:08.770Z,9.23
2019-02-21T04:07:37.304Z,9.43
2019-02-21T04:10:08.090Z,9.80
2019-02-21T04:12:36.633Z,9.20
2019-02-21T04:15:07.741Z,9.90
2019-02-21T04:17:36.441Z,10.03
2019-02-21T04:20:06.726Z,10.07
2019-02-21T04:22:35.389Z,10.17
2019-02-21T04:25:04.757Z,10.43
2019-02-21T04:27:33.295Z,10.60
2019-02-21T04:30:01.870Z,10.40
2019-02-21T04:32:30.412Z,10.97
2019-02-21T04:34:58.958Z,10.90
2019-02-21T04:37:27.548Z,10.17
2019-02-21T04:39:56.085Z,10.37
2019-02-21T04:42:24.634Z,10.67
2019-02-21T04:44:53.220Z,10.60
2019-02-21T04:47:21.757Z,10.60
2019-02-21T04:49:50.313Z,10.77
2019-02-21T04:52:18.877Z,11.27
2019-02-21T04:54:47.358Z,11.47
2019-02-21T04:57:15.977Z,13.43
2019-02-21T04:59:44.586Z,12.80
2019-02-21T05:02:13.134Z,11.90
2019-02-21T05:04:41.753Z,13.87
2019-02-21T05:07:10.329Z,11.87
2019-02-21T05:09:38.889Z,14.53
2019-02-21T05:12:07.521Z,13.50
2019-02-21T05:14:36.115Z,15.87
2019-02-21T05:17:04.742Z,14.13
2019-02-21T05:19:33.286Z,19.53
2019-02-21T05:22:01.935Z,16.30
2019-02-21T05:24:30.477Z,13.37
2019-02-21T05:27:00.589Z,14.40
2019-02-21T05:29:29.255Z,14.73
2019-02-21T05:31:59.443Z,14.53
2019-02-21T05:34:29.620Z,15.13
2019-02-21T05:36:59.821Z,15.50
2019-02-21T05:39:46.161Z,15.40
2019-02-21T05:42:30.000Z,16.10
2019-02-21T05:45:15.122Z,15.90
2019-02-21T05:47:45.325Z,16.63
2019-02-21T05:50:21.256Z,15.20
2019-02-21T05:53:00.169Z,15.10
2019-02-21T05:55:33.291Z,16.00
2019-02-21T05:58:15.181Z,15.17
2019-02-21T06:00:45.296Z,15.47
2019-02-21T06:03:27.893Z,15.40
2019-02-21T06:06:12.877Z,16.07
2019-02-21T06:08:44.231Z,17.23
2019-02-21T06:11:20.853Z,16.87
2019-02-21T06:13:56.750Z,17.73
2019-02-21T06:16:32.503Z,17.73
2019-02-21T06:19:10.526Z,18.33
2019-02-21T06:21:50.927Z,17.90
2019-02-21T06:24:23.928Z,17.57
2019-02-21T06:27:01.016Z,16.67
2019-02-21T06:29:33.888Z,18.57
2019-02-21T06:32:01.449Z,17.83
2019-02-21T06:34:31.756Z,18.07
2019-02-21T06:37:00.377Z,19.67
2019-02-21T06:39:28.846Z,17.47
2019-02-21T06:41:59.891Z,18.23
2019-02-21T06:44:27.609Z,17.77
2019-02-21T06:46:56.197Z,19.13
2019-02-21T06:49:32.134Z,18.97
2019-02-21T06:51:54.934Z,18.57
2019-02-21T06:54:23.476Z,18.50
2019-02-21T06:56:52.017Z,19.23
2019-02-21T06:59:20.521Z,19.53
2019-02-21T07:01:49.053Z,20.93
2019-02-21T07:04:17.597Z,20.30
2019-02-21T07:06:46.173Z,22.23
2019-02-21T07:09:14.638Z,22.17
2019-02-21T07:11:43.109Z,22.17
2019-02-21T07:14:11.809Z,22.80
2019-02-21T07:16:40.354Z,21.83
2019-02-21T07:19:10.763Z,21.47
2019-02-21T07:21:39.117Z,21.77
2019-02-21T07:24:07.731Z,21.57
2019-02-21T07:26:36.349Z,21.63
2019-02-21T07:29:04.994Z,22.03
2019-02-21T07:31:33.678Z,22.87
2019-02-21T07:34:02.232Z,22.00
2019-02-21T07:36:30.970Z,23.03
2019-02-21T07:39:13.667Z,23.07
2019-02-21T07:42:33.906Z,23.77
2019-02-21T07:45:02.599Z,27.07
2019-02-21T07:47:31.219Z,23.33
2019-02-21T07:49:59.904Z,21.33
2019-02-21T07:52:28.444Z,21.83
2019-02-21T07:55:01.734Z,22.67
2019-02-21T07:57:27.278Z,23.00
2019-02-21T07:59:55.821Z,25.07
2019-02-21T08:02:24.374Z,25.37
2019-02-21T08:04:52.946Z,26.77
2019-02-21T08:07:21.491Z,25.37
2019-02-21T08:09:50.044Z,24.90
2019-02-21T08:12:18.770Z,26.67
2019-02-21T08:14:47.246Z,29.17
2019-02-21T08:17:16.386Z,27.53
2019-02-21T08:19:44.950Z,29.63
2019-02-21T08:22:13.498Z,27.90
2019-02-21T08:24:42.051Z,28.57
2019-02-21T08:27:10.615Z,28.77
2019-02-21T08:29:39.299Z,28.63
2019-02-21T08:32:07.913Z,29.10
2019-02-21T08:34:38.045Z,30.00
2019-02-21T08:37:08.712Z,28.33
2019-02-21T08:39:36.718Z,30.87
2019-02-21T08:42:05.350Z,29.60
2019-02-21T08:44:33.924Z,30.23
2019-02-21T08:47:02.449Z,29.90
2019-02-21T08:49:31.097Z,28.77
2019-02-21T08:51:59.653Z,34.13
2019-02-21T08:54:28.191Z,31.57
2019-02-21T08:56:56.930Z,28.17
2019-02-21T08:59:25.479Z,29.37
2019-02-21T09:01:54.097Z,29.40
2019-02-21T09:04:27.394Z,29.97
2019-02-21T09:06:53.001Z,32.00
2019-02-21T09:09:21.642Z,30.27
2019-02-21T09:11:50.218Z,30.17
2019-02-21T09:14:18.766Z,32.73
2019-02-21T09:16:47.246Z,31.03
2019-02-21T09:19:15.825Z,32.30
2019-02-21T09:21:44.315Z,31.17
2019-02-21T09:24:13.873Z,32.17
2019-02-21T09:26:43.098Z,32.07
2019-02-21T09:29:11.654Z,31.53
2019-02-21T09:31:40.333Z,33.33
2019-02-21T09:34:08.847Z,33.23
2019-02-21T09:36:37.327Z,33.30
2019-02-21T09:39:06.265Z,33.50
2019-02-21T09:41:34.858Z,32.80
2019-02-21T09:44:03.545Z,35.00
2019-02-21T09:46:32.018Z,35.00
2019-02-21T09:49:02.905Z,33.97
2019-02-21T09:51:30.774Z,33.93
2019-02-21T09:53:59.589Z,34.20
2019-02-21T09:56:30.761Z,36.50
2019-02-21T09:58:58.381Z,36.07
2019-02-21T10:01:26.874Z,32.67
2019-02-21T10:03:57.304Z,34.57
2019-02-21T10:06:25.713Z,33.67
2019-02-21T10:08:54.914Z,34.50
2019-02-21T10:11:23.571Z,34.70
2019-02-21T10:13:52.181Z,33.40
2019-02-21T10:16:20.722Z,31.53
2019-02-21T10:18:49.365Z,32.93
2019-02-21T10:21:17.909Z,32.30
2019-02-21T10:23:46.594Z,33.50
2019-02-21T10:26:15.245Z,32.10
2019-02-21T10:28:45.234Z,34.67
2019-02-21T10:31:13.890Z,33.57
2019-02-21T10:33:47.131Z,32.43
2019-02-21T10:36:12.829Z,32.93
2019-02-21T10:38:41.458Z,36.20
2019-02-21T10:41:10.102Z,35.30
2019-02-21T10:43:38.706Z,33.53
2019-02-21T10:46:07.198Z,34.53
2019-02-21T10:48:35.689Z,34.73
2019-02-21T10:51:04.320Z,35.03
2019-02-21T10:53:32.853Z,35.07
2019-02-21T10:56:01.358Z,36.07
2019-02-21T10:58:29.972Z,35.97
2019-02-21T11:00:58.595Z,33.27
2019-02-21T11:03:27.161Z,36.70
2019-02-21T11:05:55.710Z,35.53
2019-02-21T11:08:24.323Z,34.40
2019-02-21T11:10:53.353Z,34.67
2019-02-21T11:13:21.899Z,34.80
2019-02-21T11:15:50.371Z,34.57
2019-02-21T11:18:19.118Z,36.80
2019-02-21T11:20:47.731Z,37.43
2019-02-21T11:23:16.346Z,36.77
2019-02-21T11:25:44.987Z,37.13
2019-02-21T11:28:13.749Z,39.40
2019-02-21T11:30:42.378Z,42.57
2019-02-21T11:33:11.090Z,42.73
2019-02-21T11:35:39.762Z,41.53
2019-02-21T11:38:08.472Z,41.57
2019-02-21T11:40:37.039Z,42.20
2019-02-21T11:43:05.750Z,40.97
2019-02-21T11:45:35.094Z,43.40
2019-02-21T11:48:03.834Z,41.47
2019-02-21T11:50:32.448Z,46.97
2019-02-21T11:53:01.186Z,43.87
2019-02-21T11:55:29.692Z,41.97
2019-02-21T11:57:58.309Z,43.80
2019-02-21T12:00:28.235Z,38.67
2019-02-21T12:02:56.906Z,43.93
2019-02-21T12:05:31.497Z,42.37
2019-02-21T12:07:55.839Z,40.73
2019-02-21T12:10:24.618Z,41.13
2019-02-21T12:12:53.154Z,42.77
2019-02-21T12:15:21.840Z,43.57
2019-02-21T12:17:50.473Z,43.27
2019-02-21T12:20:19.858Z,45.97
2019-02-21T12:22:48.592Z,42.37
2019-02-21T12:25:22.150Z,43.17
2019-02-21T12:27:50.690Z,44.97
2019-02-21T12:30:22.586Z,43.17
2019-02-21T12:32:51.169Z,42.27
2019-02-21T12:35:29.189Z,41.93
2019-02-21T12:37:49.970Z,44.97
2019-02-21T12:40:21.451Z,43.43
2019-02-21T12:42:50.054Z,44.20
2019-02-21T12:45:20.242Z,41.33
2019-02-21T12:47:53.326Z,41.37
2019-02-21T12:50:19.591Z,41.33
2019-02-21T12:52:48.274Z,40.87
2019-02-21T12:55:27.244Z,41.60
2019-02-21T12:57:47.372Z,38.83
2019-02-21T13:00:22.565Z,38.17
2019-02-21T13:02:51.172Z,40.87
2019-02-21T13:05:19.938Z,40.10
2019-02-21T13:07:48.697Z,37.17
2019-02-21T13:10:21.801Z,37.83
2019-02-21T13:12:50.359Z,36.37
2019-02-21T13:15:19.085Z,36.37
2019-02-21T13:17:47.778Z,34.83
2019-02-21T13:20:16.557Z,35.97
2019-02-21T13:22:45.286Z,35.90
2019-02-21T13:25:18.606Z,34.77
2019-02-21T13:27:47.313Z,36.87
2019-02-21T13:30:17.822Z,36.17
2019-02-21T13:32:46.443Z,37.13
2019-02-21T13:35:15.128Z,35.73
2019-02-21T13:37:43.794Z,34.23
2019-02-21T13:40:14.317Z,35.87
2019-02-21T13:42:42.889Z,33.07
2019-02-21T13:45:17.844Z,33.70
2019-02-21T13:47:46.641Z,34.07
2019-02-21T13:50:17.414Z,32.43
2019-02-21T13:52:46.157Z,32.10
2019-02-21T13:55:14.769Z,31.93
2019-02-21T13:57:43.457Z,31.70
2019-02-21T14:00:14.733Z,30.70
2019-02-21T14:02:43.391Z,32.13
2019-02-21T14:05:12.081Z,32.63
2019-02-21T14:07:40.690Z,31.93
2019-02-21T14:10:12.122Z,31.00
2019-02-21T14:12:40.689Z,29.40
2019-02-21T14:15:12.367Z,35.10
2019-02-21T14:17:41.005Z,31.27
2019-02-21T14:20:09.705Z,32.47
2019-02-21T14:22:38.353Z,29.60
2019-02-21T14:25:09.313Z,30.37
2019-02-21T14:27:38.094Z,30.40
2019-02-21T14:30:15.222Z,30.23
2019-02-21T14:32:43.908Z,30.30
2019-02-21T14:35:13.704Z,31.87
2019-02-21T14:37:42.403Z,36.87
2019-02-21T14:40:12.586Z,33.27
2019-02-21T14:42:41.283Z,30.83
2019-02-21T14:45:24.245Z,32.43
2019-02-21T14:47:52.790Z,30.83
2019-02-21T14:50:21.406Z,32.73
2019-02-21T14:52:50.709Z,35.27
2019-02-21T14:55:19.330Z,33.90
2019-02-21T14:57:48.014Z,34.20
2019-02-21T15:00:24.454Z,34.60
2019-02-21T15:02:53.116Z,35.37
2019-02-21T15:05:21.684Z,42.03
2019-02-21T15:07:50.265Z,41.83
2019-02-21T15:10:18.881Z,39.23
2019-02-21T15:12:47.574Z,38.70
2019-02-21T15:15:28.301Z,38.47
2019-02-21T15:18:07.050Z,39.53
2019-02-21T15:20:36.195Z,41.23
2019-02-21T15:22:57.476Z,40.87
2019-02-21T15:25:26.018Z,41.33
2019-02-21T15:27:54.640Z,41.97
2019-02-21T15:30:25.396Z,39.23
2019-02-21T15:32:54.013Z,42.00
2019-02-21T15:35:22.626Z,41.43
2019-02-21T15:37:51.341Z,42.30
2019-02-21T15:40:19.959Z,47.03
2019-02-21T15:42:48.585Z,44.20
2019-02-21T15:45:26.183Z,46.37
2019-02-21T15:47:54.904Z,46.87
2019-02-21T15:50:23.578Z,47.20
2019-02-21T15:52:53.867Z,46.33
2019-02-21T15:55:22.896Z,46.17
2019-02-21T15:58:00.515Z,45.47
2019-02-21T16:00:49.074Z,46.50
2019-02-21T16:03:17.628Z,46.60
2019-02-21T16:05:46.237Z,48.07
2019-02-21T16:08:14.814Z,46.50
2019-02-21T16:10:43.554Z,47.90
2019-02-21T16:13:12.298Z,50.03
2019-02-21T16:15:41.133Z,51.50
2019-02-21T16:18:24.764Z,58.97
2019-02-21T16:20:55.012Z,48.47
2019-02-21T16:23:23.754Z,49.43
2019-02-21T16:25:52.475Z,49.77
2019-02-21T16:28:21.165Z,48.43
2019-02-21T16:30:51.313Z,49.43
2019-02-21T16:33:20.007Z,47.90
2019-02-21T16:38:43.406Z,52.10
2019-02-21T16:41:12.110Z,48.63
2019-02-21T16:43:40.734Z,50.03
2019-02-21T16:46:09.481Z,49.63
2019-02-21T16:48:38.263Z,48.00
2019-02-21T16:51:06.963Z,46.87
2019-02-21T16:53:43.105Z,46.43
2019-02-21T16:56:18.462Z,49.23
2019-02-21T16:58:47.147Z,48.23
2019-02-21T17:01:15.794Z,49.10
2019-02-21T17:06:48.707Z,45.50
2019-02-21T17:09:17.261Z,47.70
2019-02-21T17:11:45.974Z,47.77
2019-02-21T17:14:16.301Z,45.83
2019-02-21T17:16:49.893Z,49.47
2019-02-21T17:19:23.061Z,45.27
2019-02-21T17:21:56.974Z,47.37
2019-02-21T17:24:32.068Z,46.30
2019-02-21T17:27:11.410Z,44.83
2019-02-21T17:29:39.997Z,43.93
2019-02-21T17:32:08.611Z,46.93
2019-02-21T17:34:37.210Z,45.30
2019-02-21T17:37:06.146Z,43.90
2019-02-21T17:39:34.757Z,43.77
2019-02-21T17:42:03.480Z,47.17
2019-02-21T17:44:32.266Z,46.13
2019-02-21T17:47:00.967Z,50.17
2019-02-21T17:49:29.603Z,48.27
2019-02-21T17:51:58.331Z,46.60
2019-02-21T17:54:27.729Z,47.00
2019-02-21T17:56:56.484Z,44.80
2019-02-21T17:59:40.232Z,45.53
2019-02-21T18:02:08.885Z,46.57
2019-02-21T18:04:37.530Z,47.63
2019-02-21T18:07:06.403Z,48.47
2019-02-21T18:09:35.701Z,46.70
2019-02-21T18:12:04.371Z,49.07
2019-02-21T18:14:33.579Z,50.50
2019-02-21T18:17:02.165Z,50.10
2019-02-21T18:19:30.814Z,49.63
2019-02-21T18:21:59.501Z,50.77
2019-02-21T18:24:28.228Z,48.27
2019-02-21T18:26:56.847Z,47.67
2019-02-21T18:29:30.271Z,47.17
2019-02-21T18:34:41.545Z,47.37
2019-02-21T18:37:10.224Z,45.87
2019-02-21T18:39:38.857Z,44.03
2019-02-21T18:42:07.493Z,44.83
2019-02-21T18:44:36.032Z,45.63
2019-02-21T18:47:04.638Z,45.70
2019-02-21T18:49:33.209Z,43.60
2019-02-21T18:52:01.684Z,45.30
2019-02-21T18:54:30.155Z,45.70
2019-02-21T18:56:58.721Z,46.17
2019-02-21T18:59:31.696Z,46.57
2019-02-21T19:01:57.449Z,44.90
2019-02-21T19:04:26.018Z,46.23
2019-02-21T19:06:54.637Z,46.97
2019-02-21T19:09:23.245Z,45.43
2019-02-21T19:11:51.882Z,48.73
2019-02-21T19:14:20.570Z,47.83
2019-02-21T19:16:49.189Z,47.27
2019-02-21T19:19:17.780Z,47.53
2019-02-21T19:21:46.462Z,47.93
2019-02-21T19:24:15.081Z,46.03
2019-02-21T19:26:43.653Z,43.87
2019-02-21T19:29:12.124Z,44.63
2019-02-21T19:31:40.737Z,42.07
2019-02-21T19:34:09.305Z,46.03
2019-02-21T19:36:37.921Z,43.57
2019-02-21T19:39:06.608Z,44.90
2019-02-21T19:41:35.285Z,43.63
2019-02-21T19:44:08.799Z,43.03
2019-02-21T19:46:34.201Z,43.40
2019-02-21T19:49:02.787Z,44.27
2019-02-21T19:51:31.469Z,45.10
2019-02-21T19:54:00.090Z,42.87
2019-02-21T19:56:28.728Z,43.50
2019-02-21T19:58:57.279Z,44.07
2019-02-21T20:01:25.830Z,41.93
2019-02-21T20:03:54.810Z,40.43
2019-02-21T20:06:23.350Z,42.30
2019-02-21T20:08:51.962Z,41.80
2019-02-21T20:11:20.783Z,39.47
2019-02-21T20:13:49.467Z,42.30
2019-02-21T20:16:18.159Z,43.07
2019-02-21T20:18:46.869Z,42.70
2019-02-21T20:21:15.557Z,44.60
2019-02-21T20:23:44.181Z,44.73
2019-02-21T20:26:18.390Z,44.63
2019-02-21T20:28:43.257Z,44.83
2019-02-21T20:31:11.985Z,45.33
2019-02-21T20:33:40.558Z,45.63
2019-02-21T20:36:09.456Z,45.63
2019-02-21T20:38:38.062Z,46.67
2019-02-21T20:41:06.696Z,51.93
2019-02-21T20:43:35.178Z,48.50
2019-02-21T20:46:03.895Z,47.73
2019-02-21T20:48:32.465Z,48.43
2019-02-21T20:51:01.789Z,50.70
2019-02-21T20:53:30.373Z,48.63
2019-02-21T20:55:59.018Z,49.53
2019-02-21T20:58:27.561Z,48.63
2019-02-21T21:00:56.211Z,48.90
2019-02-21T21:03:24.855Z,49.70
2019-02-21T21:05:53.569Z,48.67
2019-02-21T21:08:22.134Z,49.03
2019-02-21T21:10:50.758Z,47.53
2019-02-21T21:13:19.314Z,49.33
2019-02-21T21:15:47.864Z,48.57
2019-02-21T21:18:16.505Z,47.43
2019-02-21T21:20:44.976Z,47.80
2019-02-21T21:23:13.454Z,47.13
2019-02-21T21:25:42.101Z,44.70
2019-02-21T21:28:10.569Z,44.93
2019-02-21T21:30:39.041Z,43.43
2019-02-21T21:33:07.558Z,44.23
2019-02-21T21:35:36.175Z,42.40
2019-02-21T21:38:04.794Z,41.73
2019-02-21T21:40:33.457Z,41.70
2019-02-21T21:43:02.002Z,41.27
2019-02-21T21:45:33.381Z,39.63
2019-02-21T21:48:01.881Z,38.53
2019-02-21T21:50:30.496Z,39.03
2019-02-21T21:52:59.037Z,39.03
2019-02-21T21:55:27.629Z,39.93
2019-02-21T21:57:56.169Z,38.03
2019-02-21T22:00:24.877Z,37.63
2019-02-21T22:02:53.450Z,37.83
2019-02-21T22:05:22.074Z,35.73
2019-02-21T22:07:51.049Z,35.93
2019-02-21T22:10:19.794Z,36.23
2019-02-21T22:12:48.420Z,35.50
2019-02-21T22:15:21.520Z,35.43
2019-02-21T22:17:50.238Z,35.77
2019-02-21T22:20:18.844Z,35.53
2019-02-21T22:22:47.461Z,34.83
2019-02-21T22:25:16.103Z,36.10
2019-02-21T22:27:44.722Z,33.73
2019-02-21T22:30:17.746Z,35.10
2019-02-21T22:32:46.398Z,35.40
2019-02-21T22:35:15.009Z,34.37
2019-02-21T22:37:43.559Z,34.43
2019-02-21T22:40:17.809Z,35.37
2019-02-21T22:42:46.349Z,35.13
2019-02-21T22:45:14.966Z,33.33
2019-02-21T22:47:43.685Z,33.43
2019-02-21T22:50:14.439Z,33.73
2019-02-21T22:52:43.053Z,32.60
2019-02-21T22:55:11.881Z,32.77
2019-02-21T22:57:40.433Z,30.70
2019-02-21T23:00:30.962Z,30.40
2019-02-21T23:03:00.548Z,28.10
2019-02-21T23:05:43.946Z,28.67
2019-02-21T23:08:15.519Z,27.83
2019-02-21T23:10:44.117Z,27.90
2019-02-21T23:13:15.380Z,27.37
2019-02-21T23:15:44.061Z,26.93
2019-02-21T23:18:12.533Z,26.07
2019-02-21T23:20:41.107Z,25.60
2019-02-21T23:23:09.721Z,24.67
2019-02-21T23:25:38.341Z,25.77
2019-02-21T23:28:09.937Z,25.13
2019-02-21T23:30:38.560Z,24.83
2019-02-21T23:33:08.739Z,25.20
2019-02-21T23:35:38.945Z,25.77
2019-02-21T23:38:07.558Z,25.23
2019-02-21T23:40:37.067Z,23.63
2019-02-21T23:43:05.738Z,26.50
2019-02-21T23:45:34.419Z,23.90
2019-02-21T23:48:02.961Z,23.93
2019-02-21T23:50:31.541Z,23.37
2019-02-21T23:53:00.081Z,23.00
2019-02-21T23:55:31.771Z,22.67
2019-02-21T23:58:00.406Z,20.33
